Айхал

Карта отелей и гостиниц, располагающихся рядом с аэропортом Айхал :

Айхал Республика Саха (Якутия) 65° 57' 39.1788" N, 111° 32' 42.1188" E
Айхал Республика Саха (Якутия) 65° 57' 39.1788" N, 111° 32' 42.1188" E
Код аэродрома ИКАО
UERA
Код аэродрома RU
УЕРА
Координаты
N65.96088° E111.54503°
Превышение над уровнем моря
666
Основная полоса
17/35
Курс магнитный
171,4/351,4
Длина основной ВПП
2204
Ширина основной ВПП
60
Покрытие основной ВПП
Нетвёрдое (гравий)
Освещение ВПП
Постоянное
Тип: 
Аэродром
Класс аэродрома: 
Принадлежность: 
ГА
Статус: 
Действующий
Сайт: 
http://www.aerosever.ru/www/airports/air29/
E-mail аэродрома: 
Страна: 
Россия
Регион: 
Республика Саха (Якутия)
Город: 
Дополнительная информация: 
Горный. Оператор: филиал ФКП "Аэропорты Севера". Система ССО: ОМИ "Светлячок". Покрытие ВПП: песчано-гравийная смесь (ПГС). Эксплуатант: Мирнинское АП Акционерной компании "АЛРОСА" (ЗАО).

Найти трансфер

С помощью этой формы Вы можете найти трансфер из аэропорта Айхал в город, аэропорт или вокзал:

Карта места

Javascript is required to view this map.

Погода в аэропортах:

Авиационная погода в Нальчике

Регион: 
Погода METAR: 
URMN 281200Z 05003MPS 9999 -SHRA BKN022CB 14/09 Q1018 R24/110060 NOSIG RMK QFE727
Время наблюдения
2021-09-28T12:00:00Z
Температура C
14.0
Точка росы
9.0
Направление ветра
50
Скорость ветра (узлы)
6
Метео видимость
6.21
Явления погоды
-SHRA
Условия полета
MVFR
Аэропорт подробнее: 

Авиационная погода в Караганде

Регион: 
Погода METAR: 
UAKK 281300Z 24005MPS 8000 -RA OVC030 08/07 Q1010 R23/2///60 NOSIG RMK QFE711/0948
Время наблюдения
2021-09-28T13:00:00Z
Температура C
8.0
Точка росы
7.0
Направление ветра
240
Скорость ветра (узлы)
10
Метео видимость
4.97
Явления погоды
-RA
Условия полета
MVFR
Аэропорт подробнее: 

Авиационная погода в Трабзоне

Регион: 
Погода METAR: 
LTCG 281150Z 02005KT 340V060 9000 -SHRA BKN028 20/15 Q1018 NOSIG RMK RWY29 34004KT 300V010
Время наблюдения
2021-09-28T11:50:00Z
Температура C
20.0
Точка росы
15.0
Направление ветра
20
Скорость ветра (узлы)
5
Метео видимость
5.59
Явления погоды
-SHRA
Условия полета
MVFR

Авиационная погода в Минеральные Воды

Регион: 
Погода METAR: 
URMM 281200Z 00000MPS 9999 -SHRA BKN023CB 11/09 Q1020 R12/290250 NOSIG RMK QFE737/0982
Время наблюдения
2021-09-28T12:00:00Z
Температура C
11.0
Точка росы
9.0
Направление ветра
0
Скорость ветра (узлы)
0
Метео видимость
6.21
Явления погоды
-SHRA
Условия полета
MVFR
Аэропорт подробнее: